Maymont, Canada
Current Conditions -  °F | °C
As of 2:09 PM on Saturday 20 Dec 2014 (Local Time) from CYQW Reporting Station
Overcast Overcast  
Wind Chill: 19°   Ceiling: 2900
Heat Index: 19°   Visibility: 9mi
Dew Point: 19°   Wind: 2mph
Humidity: 100%   Direction: 150°SSE
Pressure: 29.69"   Gusts: NA
Location:  52.57°N, 107.72°W
Report Text: CYQW 202009Z AUTO 15002KT 9SM SCT021 OVC029 M07/M07 A2969 RMK SLP091
Loading
Personal Weather Stations






























Interactive Weather Map New forecast layout! Learn more

10-Day Weather Forecast

Advertisements
Track Severe Weather on mobile